Time;durP1;ratioP1;P1;durP2;ratioP2;P2;SDS_P1;SDS_P2;PMS_P1;PMS_P2;Temp;Humidity;BMP_temperature;BMP_pressure;BME280_temperature;BME280_humidity;BME280_pressure;Samples;Min_cycle;Max_cycle;Signal;HPM_P1;HPM_P2
2023/01/03 00:01:40;;;;;;;7.93;4.75;;;2.80;99.90;;;;;;5112874;28;20052;-62
2023/01/03 00:04:06;;;;;;;9.63;4.10;;;2.80;99.90;;;;;;5112158;28;20406;-62
2023/01/03 00:06:38;;;;;;;10.88;4.53;;;2.80;99.90;;;;;;5094652;28;20047;-62
2023/01/03 00:09:08;;;;;;;10.40;4.53;;;2.80;99.90;;;;;;5104971;28;20088;-62
2023/01/03 00:14:24;;;;;;;8.48;3.95;;;2.80;99.90;;;;;;5112854;28;20494;-62
2023/01/03 00:16:53;;;;;;;5.32;3.30;;;2.90;99.90;;;;;;5094652;28;20510;-63
2023/01/03 00:19:20;;;;;;;8.10;3.50;;;3.00;99.90;;;;;;5094250;28;20052;-63
2023/01/03 00:21:47;;;;;;;9.77;3.38;;;3.10;99.90;;;;;;5112573;28;20506;-62
2023/01/03 00:24:14;;;;;;;8.55;3.55;;;3.10;99.90;;;;;;5112540;28;20164;-62
2023/01/03 00:26:41;;;;;;;6.65;3.25;;;3.20;99.90;;;;;;5093875;28;20663;-63
2023/01/03 00:29:10;;;;;;;6.82;3.20;;;3.20;99.90;;;;;;5094481;28;20476;-62
2023/01/03 00:31:39;;;;;;;4.93;3.42;;;3.20;99.90;;;;;;5094472;28;20080;-63
2023/01/03 00:34:07;;;;;;;6.22;2.80;;;3.20;99.90;;;;;;5093970;28;20040;-63
2023/01/03 00:36:36;;;;;;;7.43;2.75;;;3.30;99.90;;;;;;5094375;28;20445;-62
2023/01/03 00:39:04;;;;;;;12.25;3.35;;;3.30;99.90;;;;;;5112333;28;20052;-61
2023/01/03 00:41:31;;;;;;;5.68;3.20;;;3.30;99.90;;;;;;5091369;28;20044;-62
2023/01/03 00:43:58;;;;;;;7.55;3.38;;;3.40;99.90;;;;;;5091521;28;20487;-61
2023/01/03 00:46:25;;;;;;;6.60;3.60;;;3.40;99.90;;;;;;5091320;28;20097;-61
2023/01/03 00:48:53;;;;;;;8.40;3.25;;;3.40;99.90;;;;;;5091816;28;20086;-61
2023/01/03 00:51:23;;;;;;;7.38;3.10;;;3.40;99.90;;;;;;5092669;28;20079;-62
2023/01/03 00:53:52;;;;;;;9.23;3.78;;;3.50;99.90;;;;;;5093824;28;20044;-61
2023/01/03 00:56:22;;;;;;;12.00;3.45;;;3.50;99.90;;;;;;5094668;28;20051;-62
2023/01/03 00:58:49;;;;;;;6.32;2.65;;;3.50;99.90;;;;;;5094263;28;20044;-62
2023/01/03 01:01:19;;;;;;;3.75;2.70;;;3.50;99.90;;;;;;5093450;28;20134;-62
2023/01/03 01:03:47;;;;;;;7.40;3.25;;;3.60;99.90;;;;;;5093918;28;20067;-62
2023/01/03 01:06:17;;;;;;;13.65;3.53;;;3.60;99.90;;;;;;5092036;28;20051;-62
2023/01/03 01:08:45;;;;;;;6.60;3.20;;;3.60;99.90;;;;;;5093532;28;20052;-62
2023/01/03 01:11:13;;;;;;;8.40;3.25;;;3.60;99.90;;;;;;5094431;28;20052;-61
2023/01/03 01:13:41;;;;;;;6.05;3.33;;;3.70;99.90;;;;;;5095170;28;20051;-61
2023/01/03 01:16:10;;;;;;;6.07;3.03;;;3.70;99.90;;;;;;5093710;28;20097;-62
2023/01/03 01:18:38;;;;;;;5.90;2.70;;;3.80;99.90;;;;;;5093463;28;20492;-62
2023/01/03 01:21:07;;;;;;;9.30;3.22;;;3.80;99.90;;;;;;5093408;28;20056;-61
2023/01/03 01:23:37;;;;;;;11.68;3.10;;;3.90;99.90;;;;;;5093709;28;20504;-63
2023/01/03 01:26:05;;;;;;;;;;;3.90;99.90;;;;;;5092556;28;20051;-63
2023/01/03 01:28:33;;;;;;;6.70;3.10;;;3.90;99.90;;;;;;5093176;28;20368;-63
2023/01/03 01:31:00;;;;;;;6.78;2.92;;;3.90;99.90;;;;;;5095022;28;20044;-62
2023/01/03 01:33:28;;;;;;;7.05;3.20;;;3.90;99.90;;;;;;5094520;28;20396;-61
2023/01/03 01:35:55;;;;;;;7.97;2.97;;;3.90;99.90;;;;;;5093029;28;20044;-62
2023/01/03 01:38:22;;;;;;;4.22;2.78;;;4.00;99.90;;;;;;5093549;28;20081;-61
2023/01/03 01:40:50;;;;;;;7.95;2.55;;;4.00;99.90;;;;;;5109928;27;20531;-62
2023/01/03 01:46:11;;;;;;;4.57;2.70;;;4.00;99.90;;;;;;5115585;27;20140;-62
2023/01/03 01:48:38;;;;;;;8.10;2.47;;;4.00;99.90;;;;;;5115637;27;20082;-62
2023/01/03 01:51:09;;;;;;;7.43;2.75;;;4.10;99.90;;;;;;5114845;27;20510;-63
2023/01/03 01:53:38;;;;;;;7.20;2.60;;;4.10;99.90;;;;;;5115319;27;20051;-62
2023/01/03 01:56:09;;;;;;;5.70;2.50;;;4.10;99.90;;;;;;5115276;27;20486;-62
2023/01/03 01:58:38;;;;;;;6.82;3.50;;;4.10;99.90;;;;;;5097113;28;20052;-62
2023/01/03 02:01:08;;;;;;;7.70;2.75;;;4.10;99.90;;;;;;5131960;27;20047;-63
2023/01/03 02:03:35;;;;;;;11.68;3.00;;;4.10;99.90;;;;;;5133732;27;20043;-63
2023/01/03 02:06:04;;;;;;;14.15;3.22;;;4.10;99.90;;;;;;5134822;27;20088;-63
2023/01/03 02:08:30;;;;;;;6.53;3.25;;;4.20;99.90;;;;;;5132133;27;20047;-62
2023/01/03 02:11:14;;;;;;;7.88;3.38;;;4.20;99.90;;;;;;5114325;27;20109;-63
2023/01/03 02:13:49;;;;;;;6.32;2.78;;;4.20;99.90;;;;;;5096485;28;20052;-63
2023/01/03 02:16:28;;;;;;;6.97;2.95;;;4.20;99.90;;;;;;5115041;27;20483;-63
2023/01/03 02:19:08;;;;;;;5.53;3.20;;;4.20;99.90;;;;;;5096159;28;20441;-63
2023/01/03 02:22:14;;;;;;;6.90;2.95;;;4.20;99.90;;;;;;5096590;27;20107;-62
2023/01/03 02:25:42;;;;;;;5.78;3.03;;;4.20;99.90;;;;;;5073111;27;20051;-62
2023/01/03 02:28:54;;;;;;;8.05;3.17;;;4.20;99.90;;;;;;5051622;28;20057;-62
2023/01/03 02:31:33;;;;;;;4.85;2.70;;;4.10;99.90;;;;;;5050712;28;20404;-62
2023/01/03 02:34:09;;;;;;;9.88;4.40;;;4.10;99.90;;;;;;5085389;28;20055;-63
2023/01/03 02:36:44;;;;;;;7.65;3.47;;;4.00;99.90;;;;;;5114568;27;20526;-62
2023/01/03 02:39:18;;;;;;;8.25;3.50;;;4.00;99.90;;;;;;5095100;27;20052;-63
2023/01/03 02:41:47;;;;;;;7.03;2.97;;;4.00;99.90;;;;;;5114479;27;20488;-63
2023/01/03 02:44:20;;;;;;;6.85;3.25;;;4.00;99.90;;;;;;5114048;27;20387;-63
2023/01/03 02:46:51;;;;;;;6.68;3.22;;;4.00;99.90;;;;;;5095466;28;20116;-61
2023/01/03 02:49:23;;;;;;;8.32;3.30;;;4.00;99.90;;;;;;5114505;28;20043;-62
2023/01/03 02:51:54;;;;;;;6.93;3.60;;;3.90;99.90;;;;;;5095742;28;20055;-63
2023/01/03 02:54:26;;;;;;;9.25;2.97;;;3.90;99.90;;;;;;5113307;27;20047;-63
2023/01/03 02:56:59;;;;;;;9.05;2.70;;;3.80;99.90;;;;;;5095889;28;20054;-62
2023/01/03 02:59:35;;;;;;;7.35;3.00;;;3.70;99.90;;;;;;5113405;28;20453;-61
2023/01/03 03:02:06;;;;;;;7.65;2.80;;;3.60;99.90;;;;;;5113979;28;20548;-61
2023/01/03 03:04:34;;;;;;;;;;;3.50;99.90;;;;;;5095941;27;20052;-62
2023/01/03 03:07:07;;;;;;;7.30;3.45;;;3.40;99.90;;;;;;5094899;28;20056;-62
2023/01/03 03:13:11;;;;;;;7.50;3.00;;;3.30;99.90;;;;;;5095809;28;20192;-63
2023/01/03 03:15:10;;;;;;;6.43;2.92;;;3.10;99.90;;;;;;5113222;27;20043;-63
2023/01/03 03:17:40;;;;;;;6.00;3.05;;;3.00;99.90;;;;;;5095663;28;20055;-62
2023/01/03 03:25:50;;;;;;;5.88;3.00;;;2.80;99.90;;;;;;5113446;27;20054;-61
2023/01/03 03:28:33;;;;;;;;;;;2.70;99.90;;;;;;5113502;27;20055;-61
2023/01/03 03:31:03;;;;;;;9.43;3.22;;;2.60;99.90;;;;;;5113851;27;20424;-62
2023/01/03 03:33:39;;;;;;;8.15;3.55;;;2.50;99.90;;;;;;5113458;27;20518;-63
2023/01/03 03:36:11;;;;;;;8.98;4.53;;;2.50;99.90;;;;;;5113162;27;20267;-61
2023/01/03 03:38:41;;;;;;;7.88;3.92;;;2.40;99.90;;;;;;5113470;28;20416;-63
2023/01/03 03:46:54;;;;;;;9.43;3.67;;;2.20;99.90;;;;;;5068308;27;20475;-62
2023/01/03 03:49:39;;;;;;;11.30;3.63;;;2.10;99.90;;;;;;5132400;27;20046;-63
2023/01/03 03:52:10;;;;;;;8.93;3.45;;;2.10;99.90;;;;;;5132880;27;20044;-62
2023/01/03 03:54:40;;;;;;;10.98;3.72;;;2.10;99.90;;;;;;5132592;27;20472;-62
2023/01/03 03:57:13;;;;;;;17.20;3.63;;;2.10;99.90;;;;;;5112694;28;20126;-62
2023/01/03 03:59:44;;;;;;;6.50;3.55;;;2.00;99.90;;;;;;5130434;27;20051;-62
2023/01/03 04:02:12;;;;;;;11.00;3.53;;;1.90;99.90;;;;;;5132565;27;20051;-62
2023/01/03 04:04:47;;;;;;;6.88;3.67;;;1.90;99.90;;;;;;5111947;27;20043;-61
2023/01/03 04:07:14;;;;;;;7.43;3.63;;;1.80;99.90;;;;;;5094641;28;20089;-62
2023/01/03 04:09:41;;;;;;;8.68;3.85;;;1.80;99.90;;;;;;5113027;28;20103;-62
2023/01/03 04:12:08;;;;;;;8.75;3.85;;;1.80;99.90;;;;;;5113127;28;20054;-61
2023/01/03 04:14:35;;;;;;;9.63;3.58;;;1.70;99.90;;;;;;5112783;28;20082;-61
2023/01/03 04:17:02;;;;;;;8.95;4.10;;;1.60;99.90;;;;;;5112648;28;20055;-62
2023/01/03 04:19:29;;;;;;;5.10;3.35;;;1.60;99.90;;;;;;5113043;28;20041;-62
2023/01/03 04:21:57;;;;;;;9.40;4.00;;;1.60;99.90;;;;;;5113075;28;20047;-62
2023/01/03 04:24:24;;;;;;;6.35;3.70;;;1.60;99.90;;;;;;5096174;27;20088;-62
2023/01/03 04:26:51;;;;;;;7.07;3.55;;;1.50;99.90;;;;;;5099012;28;20479;-63
2023/01/03 04:29:18;;;;;;;12.68;3.83;;;1.50;99.90;;;;;;5098874;28;20055;-62
2023/01/03 04:31:45;;;;;;;9.43;4.03;;;1.50;99.90;;;;;;5116666;27;20043;-62
2023/01/03 04:34:12;;;;;;;4.55;3.45;;;1.60;99.90;;;;;;5136395;27;20092;-61
2023/01/03 04:36:39;;;;;;;8.50;4.13;;;1.60;99.90;;;;;;5116557;27;20052;-62
2023/01/03 04:39:07;;;;;;;9.40;4.63;;;1.70;99.90;;;;;;5116199;27;20052;-61
2023/01/03 04:41:34;;;;;;;7.22;4.40;;;1.70;99.90;;;;;;5117215;27;20043;-61
2023/01/03 04:44:03;;;;;;;10.98;4.97;;;1.80;99.90;;;;;;5116624;27;20066;-63
2023/01/03 04:46:32;;;;;;;7.40;5.15;;;1.90;99.90;;;;;;5116270;27;20040;-62
2023/01/03 04:48:59;;;;;;;12.18;5.97;;;1.90;99.90;;;;;;5098504;28;20055;-62
2023/01/03 04:51:27;;;;;;;13.85;5.60;;;2.00;99.90;;;;;;5116699;27;20065;-63
2023/01/03 04:53:55;;;;;;;14.18;6.18;;;2.00;99.90;;;;;;5097541;28;20044;-63
2023/01/03 04:56:27;;;;;;;13.23;6.60;;;2.10;99.90;;;;;;5114880;27;20105;-63
2023/01/03 04:58:55;;;;;;;10.40;6.53;;;2.20;99.90;;;;;;5098120;28;20093;-63
2023/01/03 05:01:22;;;;;;;13.35;7.43;;;2.20;99.90;;;;;;5101173;28;20055;-63
2023/01/03 05:03:50;;;;;;;12.85;7.90;;;2.20;99.90;;;;;;5100323;28;20058;-63
2023/01/03 05:06:17;;;;;;;13.73;7.70;;;2.30;99.90;;;;;;5113833;28;20051;-62
2023/01/03 05:08:45;;;;;;;14.90;7.75;;;2.30;99.90;;;;;;5099137;28;20051;-62
2023/01/03 05:11:12;;;;;;;15.60;8.05;;;2.40;99.90;;;;;;5115374;27;20055;-63
2023/01/03 05:13:41;;;;;;;16.10;8.70;;;2.40;99.90;;;;;;5114217;28;20447;-62
2023/01/03 05:16:10;;;;;;;16.73;8.50;;;2.40;99.90;;;;;;5101013;28;20463;-62
2023/01/03 05:18:37;;;;;;;15.18;8.02;;;2.50;99.90;;;;;;5114315;27;20060;-62
2023/01/03 05:26:39;;;;;;;20.33;8.45;;;2.50;99.90;;;;;;5102802;27;20487;-61
2023/01/03 05:29:09;;;;;;;15.05;8.60;;;2.50;99.90;;;;;;5113226;27;20044;-61
2023/01/03 05:31:36;;;;;;;19.15;9.00;;;2.50;99.90;;;;;;5101948;27;20517;-62
2023/01/03 05:34:04;;;;;;;15.40;8.13;;;2.60;99.90;;;;;;5098259;28;20479;-62
2023/01/03 05:36:31;;;;;;;15.95;9.25;;;2.70;99.90;;;;;;5099980;28;20066;-62
2023/01/03 05:38:58;;;;;;;17.77;9.07;;;2.70;99.90;;;;;;5114169;27;20483;-62
2023/01/03 05:44:10;;;;;;;16.50;9.52;;;2.70;99.90;;;;;;5098557;27;20047;-63
2023/01/03 05:46:38;;;;;;;16.58;9.95;;;2.70;99.90;;;;;;5095785;27;20071;-63
2023/01/03 05:49:05;;;;;;;20.65;10.20;;;2.60;99.90;;;;;;5099500;27;20059;-63
2023/01/03 05:51:32;;;;;;;18.85;9.57;;;2.60;99.90;;;;;;5099716;28;20055;-62
2023/01/03 05:53:59;;;;;;;16.77;9.65;;;2.60;99.90;;;;;;5101783;28;20058;-62
2023/01/03 05:56:26;;;;;;;19.35;10.57;;;2.60;99.90;;;;;;5100685;28;20056;-62
2023/01/03 05:58:53;;;;;;;16.23;9.80;;;2.60;99.90;;;;;;5101701;28;20054;-63
2023/01/03 06:01:21;;;;;;;20.05;10.55;;;2.60;99.90;;;;;;5113221;27;20453;-63
2023/01/03 06:03:48;;;;;;;18.95;9.98;;;2.60;99.90;;;;;;5101818;28;20071;-62
2023/01/03 06:06:16;;;;;;;17.42;9.52;;;2.60;99.90;;;;;;5113008;28;20433;-62
2023/01/03 06:08:43;;;;;;;19.05;10.43;;;2.60;99.90;;;;;;5113639;27;20043;-62
2023/01/03 06:11:12;;;;;;;19.05;11.60;;;2.60;99.90;;;;;;5098585;28;20055;-62
2023/01/03 06:13:39;;;;;;;18.83;11.23;;;2.60;99.90;;;;;;5098118;28;20043;-63
2023/01/03 06:18:54;;;;;;;18.75;11.25;;;2.70;99.90;;;;;;5098032;27;20058;-61
2023/01/03 06:21:21;;;;;;;20.70;10.60;;;2.70;99.90;;;;;;5112534;28;20050;-61
2023/01/03 06:23:48;;;;;;;19.38;11.57;;;2.70;99.90;;;;;;5097634;28;20548;-61
2023/01/03 06:26:16;;;;;;;20.55;11.57;;;2.70;99.90;;;;;;5099798;28;20484;-61
2023/01/03 06:28:43;;;;;;;25.17;11.95;;;2.70;99.90;;;;;;5112685;27;20114;-62
2023/01/03 06:31:11;;;;;;;25.40;12.38;;;2.60;99.90;;;;;;5100110;27;20399;-62
2023/01/03 06:33:39;;;;;;;18.13;11.30;;;2.60;99.90;;;;;;5113661;27;20043;-63
2023/01/03 06:36:10;;;;;;;20.27;11.25;;;2.60;99.90;;;;;;5112754;27;20048;-63
2023/01/03 06:38:36;;;;;;;;;;;2.60;99.90;;;;;;5112589;27;20419;-62
2023/01/03 06:41:04;;;;;;;21.30;11.20;;;2.50;99.90;;;;;;5096537;28;20348;-63
2023/01/03 06:43:31;;;;;;;22.58;12.27;;;2.50;99.90;;;;;;5112633;27;20497;-63
2023/01/03 06:54:21;;;;;;;22.05;12.98;;;2.30;99.90;;;;;;5097929;28;20487;-62
2023/01/03 06:56:49;;;;;;;22.65;12.82;;;2.20;99.90;;;;;;5112125;27;20051;-62
2023/01/03 06:59:16;;;;;;;25.77;13.88;;;2.20;99.90;;;;;;5097668;27;20059;-62
2023/01/03 07:01:43;;;;;;;24.38;13.57;;;2.10;99.90;;;;;;5113070;27;20047;-66
2023/01/03 07:04:10;;;;;;;22.85;13.27;;;2.10;99.90;;;;;;5099150;28;20499;-62
2023/01/03 07:06:40;;;;;;;20.77;13.50;;;2.00;99.90;;;;;;5111390;27;20040;-63
2023/01/03 07:09:07;;;;;;;27.52;14.23;;;2.00;99.90;;;;;;5099030;27;20414;-63
2023/01/03 07:11:35;;;;;;;28.02;15.05;;;2.00;99.90;;;;;;5099257;28;20052;-63
2023/01/03 07:14:02;;;;;;;24.67;14.40;;;1.90;99.90;;;;;;5111065;28;20096;-62
2023/01/03 07:16:31;;;;;;;28.02;14.80;;;1.90;99.90;;;;;;5097540;27;20085;-63
2023/01/03 07:18:59;;;;;;;24.17;13.27;;;1.90;99.90;;;;;;5098862;27;20051;-63
2023/01/03 07:21:27;;;;;;;25.70;15.15;;;1.80;99.90;;;;;;5111173;27;20059;-63
2023/01/03 07:23:57;;;;;;;24.92;13.80;;;1.70;99.90;;;;;;5097707;28;20048;-62
2023/01/03 07:26:25;;;;;;;24.33;13.73;;;1.70;99.90;;;;;;5112393;28;20444;-63
2023/01/03 07:28:52;;;;;;;27.38;15.43;;;1.60;99.90;;;;;;5112176;27;20051;-62
2023/01/03 07:31:19;;;;;;;28.67;14.93;;;1.60;99.90;;;;;;5111228;28;20132;-63
2023/01/03 07:33:46;;;;;;;24.00;14.68;;;1.60;99.90;;;;;;5097640;28;20495;-62
2023/01/03 07:36:15;;;;;;;25.15;14.73;;;1.50;99.90;;;;;;5111011;28;20056;-62
2023/01/03 07:38:44;;;;;;;26.23;14.23;;;1.50;99.90;;;;;;5096700;28;20058;-62
2023/01/03 07:41:13;;;;;;;30.15;15.93;;;1.50;99.90;;;;;;5109976;28;20522;-63
2023/01/03 07:43:41;;;;;;;28.80;16.00;;;1.50;99.90;;;;;;5111540;28;20048;-63
2023/01/03 07:46:11;;;;;;;36.20;17.73;;;1.50;99.90;;;;;;5110789;27;20081;-62
2023/01/03 07:48:38;;;;;;;33.28;18.30;;;1.50;99.90;;;;;;5096566;28;20056;-61
2023/01/03 07:51:05;;;;;;;31.20;17.15;;;1.50;99.90;;;;;;5096638;28;20097;-63
2023/01/03 07:53:33;;;;;;;31.58;17.10;;;1.50;99.90;;;;;;5111559;28;20055;-63
2023/01/03 07:56:06;;;;;;;31.70;17.30;;;1.50;99.90;;;;;;5111261;28;20055;-62
2023/01/03 07:58:34;;;;;;;30.23;15.90;;;1.50;99.90;;;;;;5109952;28;20499;-63
2023/01/03 08:01:06;;;;;;;30.33;17.52;;;1.70;99.90;;;;;;5110982;27;20411;-63
2023/01/03 08:03:34;;;;;;;29.05;16.73;;;1.70;99.90;;;;;;5100180;28;20050;-64
2023/01/03 08:06:02;;;;;;;25.42;14.90;;;1.70;99.90;;;;;;5098207;28;20044;-64
2023/01/03 08:08:29;;;;;;;30.92;16.88;;;1.70;99.90;;;;;;5131529;27;20050;-65
2023/01/03 08:13:42;;;;;;;24.98;14.88;;;1.70;99.90;;;;;;5124582;27;20058;-63
2023/01/03 08:16:11;;;;;;;30.10;15.43;;;1.60;99.90;;;;;;5115781;28;20503;-64
2023/01/03 08:18:38;;;;;;;29.98;16.17;;;1.60;99.90;;;;;;5095636;28;20039;-64
2023/01/03 08:21:06;;;;;;;26.90;15.70;;;1.90;99.90;;;;;;5113177;28;20444;-64
2023/01/03 08:23:33;;;;;;;24.10;14.65;;;2.30;99.90;;;;;;5130930;28;20062;-63
2023/01/03 08:26:02;;;;;;;22.98;14.30;;;3.00;99.90;;;;;;5093857;28;20483;-63
2023/01/03 08:28:29;;;;;;;23.10;13.25;;;3.70;99.90;;;;;;5124074;28;20047;-63
2023/01/03 08:30:59;;;;;;;21.65;12.02;;;4.50;99.90;;;;;;5110890;28;20048;-64
2023/01/03 08:33:31;;;;;;;19.65;10.95;;;5.20;99.90;;;;;;5113358;28;20058;-64
2023/01/03 08:36:02;;;;;;;15.73;10.82;;;5.90;99.90;;;;;;5112692;28;20097;-64
2023/01/03 08:38:33;;;;;;;17.67;11.77;;;6.30;99.90;;;;;;5111921;28;20403;-64
2023/01/03 08:41:01;;;;;;;18.20;11.82;;;6.90;99.90;;;;;;5111980;28;20062;-64
2023/01/03 08:43:29;;;;;;;15.95;10.35;;;7.30;99.90;;;;;;5096282;28;20134;-64
2023/01/03 08:45:57;;;;;;;14.90;10.68;;;7.70;99.90;;;;;;5105873;28;20040;-64
2023/01/03 08:48:25;;;;;;;14.88;10.40;;;8.40;99.90;;;;;;5112806;28;20059;-65
2023/01/03 08:50:52;;;;;;;15.40;9.95;;;8.70;99.90;;;;;;5131770;28;20052;-64
2023/01/03 08:53:21;;;;;;;15.95;10.43;;;9.20;99.90;;;;;;5131080;28;20043;-64
2023/01/03 08:55:48;;;;;;;15.45;10.23;;;9.60;99.90;;;;;;5112768;28;20047;-64
2023/01/03 08:58:16;;;;;;;14.27;10.07;;;9.80;99.90;;;;;;5111178;28;20487;-64
2023/01/03 09:00:42;;;;;;;14.98;9.55;;;10.10;99.90;;;;;;5113120;28;20058;-63
2023/01/03 09:03:11;;;;;;;12.82;9.35;;;10.20;99.90;;;;;;5131543;28;20060;-64
2023/01/03 09:05:38;;;;;;;13.25;9.73;;;10.40;99.90;;;;;;5110951;28;20040;-65
2023/01/03 09:08:05;;;;;;;14.20;9.57;;;10.40;99.90;;;;;;5131277;28;20490;-64
2023/01/03 09:10:33;;;;;;;11.80;9.30;;;10.40;99.90;;;;;;5114795;27;20053;-65
2023/01/03 09:13:01;;;;;;;13.98;9.35;;;10.50;99.90;;;;;;5115445;27;20044;-64
2023/01/03 09:15:28;;;;;;;15.38;9.90;;;10.50;99.90;;;;;;5135585;27;20047;-64
2023/01/03 09:17:55;;;;;;;14.38;10.60;;;10.20;99.90;;;;;;5112105;27;20054;-66
2023/01/03 09:20:23;;;;;;;11.98;9.18;;;10.30;99.90;;;;;;5117505;27;20048;-65
2023/01/03 09:22:50;;;;;;;11.73;8.82;;;10.60;99.90;;;;;;5116065;27;20044;-65
2023/01/03 09:25:17;;;;;;;13.98;9.48;;;9.90;99.90;;;;;;5097811;28;20102;-63
2023/01/03 09:27:46;;;;;;;20.90;9.93;;;8.60;99.90;;;;;;5096622;27;20245;-64
2023/01/03 09:30:14;;;;;;;15.10;10.02;;;7.50;99.90;;;;;;5115990;27;20461;-64
2023/01/03 09:32:40;;;;;;;35.80;10.40;;;6.30;99.90;;;;;;5115623;27;20118;-64
2023/01/03 09:35:09;;;;;;;43.75;10.48;;;5.40;99.90;;;;;;5096688;28;20521;-65
2023/01/03 09:37:37;;;;;;;44.97;11.57;;;4.80;99.90;;;;;;5115466;28;20479;-64
2023/01/03 09:40:05;;;;;;;43.63;11.77;;;4.40;99.90;;;;;;5115531;27;20062;-64
2023/01/03 09:45:20;;;;;;;39.33;10.93;;;3.70;99.90;;;;;;5097305;28;20044;-64
2023/01/03 09:47:47;;;;;;;55.70;11.43;;;3.40;99.90;;;;;;5096273;28;20048;-65
2023/01/03 09:50:20;;;;;;;46.97;10.45;;;3.20;99.90;;;;;;5111526;27;20050;-63
2023/01/03 10:04:34;;;;;;;38.53;10.20;;;2.60;99.90;;;;;;5096707;28;20509;-64
2023/01/03 10:07:14;;;;;;;45.45;11.18;;;2.60;99.90;;;;;;5096462;28;20039;-63
2023/01/03 10:09:51;;;;;;;65.15;12.02;;;2.50;99.90;;;;;;5096444;28;20066;-64
2023/01/03 10:12:28;;;;;;;74.55;12.90;;;2.50;99.90;;;;;;5096773;27;20104;-64
2023/01/03 10:15:11;;;;;;;58.15;12.20;;;2.50;99.90;;;;;;5096592;28;20092;-63
2023/01/03 10:17:49;;;;;;;41.03;11.60;;;2.50;99.90;;;;;;5096111;28;20040;-63
2023/01/03 10:20:33;;;;;;;51.78;12.07;;;2.60;99.90;;;;;;5112228;27;20047;-64
2023/01/03 10:23:03;;;;;;;38.15;12.15;;;2.60;99.90;;;;;;5132951;27;20047;-64
2023/01/03 10:25:31;;;;;;;44.58;12.10;;;2.60;99.90;;;;;;5097468;28;20430;-64
2023/01/03 10:28:04;;;;;;;31.27;12.45;;;2.70;99.90;;;;;;5094490;27;20043;-63
2023/01/03 10:30:47;;;;;;;29.52;12.38;;;2.70;99.90;;;;;;5113353;27;20471;-64
2023/01/03 10:33:29;;;;;;;57.13;14.88;;;2.80;99.90;;;;;;5096531;28;20044;-64
2023/01/03 10:35:57;;;;;;;42.47;12.80;;;2.80;99.90;;;;;;5094708;27;20175;-64
2023/01/03 10:38:24;;;;;;;51.08;14.50;;;2.80;99.90;;;;;;5093806;28;20505;-63
2023/01/03 10:40:56;;;;;;;41.72;14.85;;;2.80;99.90;;;;;;5112400;27;20128;-64
2023/01/03 10:43:30;;;;;;;75.22;16.42;;;2.90;99.90;;;;;;5113784;27;20483;-64
2023/01/03 10:45:59;;;;;;;44.70;14.90;;;3.00;99.90;;;;;;5096652;27;20052;-64
2023/01/03 10:48:34;;;;;;;48.90;14.75;;;3.10;99.90;;;;;;5095776;28;20071;-63
2023/01/03 10:51:05;;;;;;;45.65;15.57;;;3.10;99.90;;;;;;5093866;27;20051;-64
2023/01/03 10:53:37;;;;;;;57.85;16.13;;;3.10;99.90;;;;;;5096979;27;20452;-64
2023/01/03 10:56:06;;;;;;;34.33;15.35;;;3.10;99.90;;;;;;5113718;27;20384;-65
2023/01/03 10:58:33;;;;;;;49.72;17.63;;;3.20;99.90;;;;;;5111941;28;20058;-64
2023/01/03 11:01:11;;;;;;;43.05;17.48;;;3.30;99.90;;;;;;5094183;28;20056;-64
2023/01/03 11:03:43;;;;;;;37.72;17.02;;;3.40;99.90;;;;;;5094158;28;20054;-64
2023/01/03 11:06:15;;;;;;;39.53;17.67;;;3.40;99.90;;;;;;5093545;28;20044;-65
2023/01/03 11:08:44;;;;;;;45.08;17.90;;;3.50;99.90;;;;;;5093439;28;20572;-65
2023/01/03 11:11:32;;;;;;;35.70;17.63;;;3.60;99.90;;;;;;5094549;28;20055;-64
2023/01/03 11:14:22;;;;;;;38.35;17.63;;;3.70;99.90;;;;;;5093064;28;20507;-64
2023/01/03 11:16:58;;;;;;;37.75;18.63;;;3.70;99.90;;;;;;5107938;27;20503;-65
2023/01/03 11:19:28;;;;;;;33.85;19.10;;;3.80;99.90;;;;;;5094179;28;20055;-64
2023/01/03 11:22:03;;;;;;;36.08;20.08;;;3.90;99.90;;;;;;5112153;27;20499;-65
2023/01/03 11:24:51;;;;;;;34.85;19.70;;;4.00;99.90;;;;;;5112940;27;20051;-64
2023/01/03 11:27:30;;;;;;;31.55;17.88;;;4.10;99.90;;;;;;5093423;28;20044;-64
2023/01/03 11:30:08;;;;;;;31.52;18.27;;;4.40;99.90;;;;;;5093804;28;20085;-63
2023/01/03 11:32:51;;;;;;;30.70;18.63;;;4.50;99.90;;;;;;5112357;28;20044;-64
2023/01/03 11:35:36;;;;;;;33.75;20.08;;;4.60;99.90;;;;;;5112238;27;20135;-64
2023/01/03 11:38:16;;;;;;;33.08;19.52;;;4.70;99.90;;;;;;5114710;27;20035;-64
2023/01/03 11:40:50;;;;;;;35.88;20.63;;;4.80;99.90;;;;;;5092426;28;20096;-64
2023/01/03 11:43:31;;;;;;;36.08;21.15;;;4.80;99.90;;;;;;5093275;28;20047;-63
2023/01/03 11:46:17;;;;;;;32.50;19.83;;;4.80;99.90;;;;;;5097880;27;20047;-65
2023/01/03 11:49:07;;;;;;;35.80;20.30;;;4.80;99.90;;;;;;5112270;28;20054;-64
2023/01/03 11:51:41;;;;;;;39.20;22.65;;;4.80;99.90;;;;;;5095042;28;20074;-64
2023/01/03 11:54:17;;;;;;;38.35;22.55;;;4.90;99.90;;;;;;5094462;28;20052;-64
2023/01/03 11:56:47;;;;;;;37.70;22.15;;;4.90;99.90;;;;;;5095125;28;20051;-64
2023/01/03 11:59:29;;;;;;;42.72;22.73;;;4.90;99.90;;;;;;5094290;27;20043;-64
2023/01/03 12:02:32;;;;;;;39.05;21.25;;;5.00;99.90;;;;;;5093920;28;20097;-64
2023/01/03 12:05:16;;;;;;;38.75;22.00;;;5.10;99.90;;;;;;5104814;27;20047;-64
2023/01/03 12:07:53;;;;;;;38.40;21.15;;;5.10;99.90;;;;;;5111730;27;20484;-64
2023/01/03 12:10:24;;;;;;;39.70;22.73;;;5.20;99.90;;;;;;5131788;27;20050;-64
2023/01/03 12:13:19;;;;;;;39.08;24.15;;;5.20;99.90;;;;;;5132598;27;20043;-64
2023/01/03 12:15:50;;;;;;;43.45;24.05;;;5.30;99.90;;;;;;5104382;28;20403;-64
2023/01/03 12:18:22;;;;;;;;;;;5.30;99.90;;;;;;5113390;28;20044;-64
2023/01/03 12:20:54;;;;;;;38.47;22.38;;;5.30;99.90;;;;;;5113118;28;19923;-65
2023/01/03 12:23:31;;;;;;;42.08;22.63;;;5.40;99.90;;;;;;5093837;28;20522;-64
2023/01/03 12:26:04;;;;;;;46.60;24.17;;;5.40;99.90;;;;;;5094688;28;20044;-65
2023/01/03 12:28:36;;;;;;;42.17;23.25;;;5.50;99.90;;;;;;5094114;28;20131;-63
2023/01/03 12:31:17;;;;;;;42.88;22.85;;;5.50;99.90;;;;;;5112232;28;20438;-64
2023/01/03 12:33:49;;;;;;;39.33;22.60;;;5.60;99.90;;;;;;5112986;28;20062;-64
2023/01/03 12:36:27;;;;;;;41.53;23.45;;;5.60;99.90;;;;;;5112117;28;20047;-63
2023/01/03 12:39:06;;;;;;;43.25;20.70;;;5.70;99.90;;;;;;5094297;28;20048;-64
2023/01/03 12:41:41;;;;;;;40.33;22.38;;;5.70;99.90;;;;;;5112913;28;20144;-65
2023/01/03 12:44:15;;;;;;;39.25;22.00;;;5.80;99.90;;;;;;5112075;27;20400;-63
2023/01/03 12:46:47;;;;;;;40.53;22.73;;;5.80;99.90;;;;;;5098381;27;20052;-64
2023/01/03 12:49:17;;;;;;;38.78;21.50;;;5.80;99.90;;;;;;5116818;27;20071;-64
2023/01/03 12:51:44;;;;;;;;;;;5.90;99.90;;;;;;5098131;27;20055;-63
2023/01/03 12:54:26;;;;;;;39.10;22.65;;;5.90;99.90;;;;;;5116638;27;20401;-63
2023/01/03 12:57:18;;;;;;;38.13;20.08;;;5.90;99.90;;;;;;5098449;28;20044;-64
2023/01/03 13:00:18;;;;;;;37.58;19.58;;;5.90;99.90;;;;;;5111287;27;20051;-64
2023/01/03 13:02:52;;;;;;;36.42;19.27;;;6.00;99.90;;;;;;5099322;28;20047;-63
2023/01/03 13:05:26;;;;;;;34.08;19.38;;;6.00;99.90;;;;;;5115903;27;20048;-63
2023/01/03 13:08:08;;;;;;;33.33;20.15;;;6.10;99.90;;;;;;5097935;27;20392;-64
2023/01/03 13:10:40;;;;;;;32.10;18.40;;;6.10;99.90;;;;;;5116466;27;20047;-64
2023/01/03 13:13:14;;;;;;;31.67;19.33;;;6.10;99.90;;;;;;5097251;27;20044;-64
2023/01/03 13:15:41;;;;;;;33.15;17.85;;;6.10;99.90;;;;;;5116259;27;20044;-64
2023/01/03 13:18:35;;;;;;;30.63;18.83;;;6.10;99.90;;;;;;5097812;28;20051;-64
2023/01/03 13:21:40;;;;;;;29.50;18.55;;;6.10;99.90;;;;;;5098005;27;20087;-64
2023/01/03 13:24:07;;;;;;;25.00;15.98;;;6.20;99.90;;;;;;5115269;27;20043;-65
2023/01/03 13:26:34;;;;;;;30.27;16.27;;;6.20;99.90;;;;;;5115513;27;20415;-65
2023/01/03 13:29:38;;;;;;;26.35;15.25;;;6.30;99.90;;;;;;5116048;27;20081;-64
2023/01/03 13:32:16;;;;;;;24.98;15.20;;;6.30;99.90;;;;;;5115244;27;20058;-64
2023/01/03 13:34:44;;;;;;;22.13;13.05;;;6.40;99.90;;;;;;5115200;27;20063;-63
2023/01/03 13:37:21;;;;;;;23.40;13.25;;;6.40;99.90;;;;;;5097673;27;20047;-63
2023/01/03 13:40:00;;;;;;;22.42;13.27;;;6.50;99.90;;;;;;5114930;27;20074;-64
2023/01/03 13:42:29;;;;;;;17.90;11.98;;;6.50;99.90;;;;;;5115844;27;20051;-64
2023/01/03 13:45:34;;;;;;;20.23;11.93;;;6.60;99.90;;;;;;5097190;28;20056;-64
2023/01/03 13:48:14;;;;;;;19.48;11.80;;;6.60;99.90;;;;;;5096457;28;20043;-64
2023/01/03 13:51:29;;;;;;;21.60;12.75;;;6.70;99.90;;;;;;5097279;28;20051;-64
2023/01/03 13:53:59;;;;;;;21.95;11.95;;;6.60;99.90;;;;;;5111012;27;20055;-65
2023/01/03 13:56:29;;;;;;;17.63;11.90;;;6.70;99.90;;;;;;5131916;27;20050;-65
2023/01/03 13:59:02;;;;;;;23.10;13.13;;;6.70;99.90;;;;;;5116181;27;20050;-64
2023/01/03 14:02:00;;;;;;;20.92;12.65;;;6.70;99.90;;;;;;5133899;27;20051;-64
2023/01/03 14:04:56;;;;;;;24.15;12.85;;;6.70;99.90;;;;;;5106402;27;20051;-64
2023/01/03 14:07:53;;;;;;;26.40;12.65;;;6.70;99.90;;;;;;5097893;28;20046;-64